Time;durP1;ratioP1;P1;durP2;ratioP2;P2;SDS_P1;SDS_P2;PMS_P1;PMS_P2;Temp;Humidity;BMP_temperature;BMP_pressure;BME280_temperature;BME280_humidity;BME280_pressure;Samples;Min_cycle;Max_cycle;Signal;HPM_P1;HPM_P2
2021/06/05 00:01:32;;;;;;;3.77;3.40;;;14.60;99.90;;;;;;5055518;28;20421;-83
2021/06/05 00:03:58;;;;;;;3.47;3.23;;;14.60;99.90;;;;;;5033797;28;20404;-90
2021/06/05 00:06:24;;;;;;;3.13;2.90;;;14.70;99.90;;;;;;5029208;28;20480;-90
2021/06/05 00:08:50;;;;;;;3.67;3.38;;;14.60;99.90;;;;;;5030612;28;20395;-89
2021/06/05 00:11:16;;;;;;;3.35;3.13;;;14.50;99.90;;;;;;5038430;28;20490;-86
2021/06/05 00:13:44;;;;;;;3.67;3.30;;;14.50;99.90;;;;;;5044000;28;20425;-89
2021/06/05 00:16:15;;;;;;;3.30;3.10;;;14.50;99.90;;;;;;5061179;28;20665;-87
2021/06/05 00:18:41;;;;;;;3.92;3.53;;;14.50;99.90;;;;;;5062287;28;20403;-87
2021/06/05 00:21:06;;;;;;;3.63;3.33;;;14.40;99.90;;;;;;5039908;28;20430;-90
2021/06/05 00:23:32;;;;;;;3.60;3.30;;;14.40;99.90;;;;;;5046550;28;20772;-84
2021/06/05 00:25:58;;;;;;;3.93;3.63;;;14.40;99.90;;;;;;5061424;28;20417;-87
2021/06/05 00:28:24;;;;;;;4.30;3.90;;;14.40;99.90;;;;;;5060145;28;20413;-89
2021/06/05 00:30:49;;;;;;;3.83;3.53;;;14.30;99.90;;;;;;5039607;28;20434;-88
2021/06/05 00:33:15;;;;;;;4.63;3.80;;;14.30;99.90;;;;;;5061771;28;20387;-89
2021/06/05 00:35:41;;;;;;;4.00;3.60;;;14.30;99.90;;;;;;5042894;28;20433;-89
2021/06/05 00:38:07;;;;;;;3.80;3.50;;;14.30;99.90;;;;;;5011674;28;20664;-85
2021/06/05 00:40:36;;;;;;;4.28;3.38;;;14.50;99.90;;;;;;5058822;28;20418;-92
2021/06/05 00:43:02;;;;;;;4.05;3.67;;;14.20;99.90;;;;;;5039576;28;20478;-86
2021/06/05 00:45:31;;;;;;;3.90;3.60;;;14.20;99.90;;;;;;5026731;28;20383;-92
2021/06/05 00:47:57;;;;;;;4.07;3.42;;;14.20;99.90;;;;;;5026918;28;20617;-87
2021/06/05 00:50:23;;;;;;;5.03;3.92;;;14.10;99.90;;;;;;5038028;28;20413;-84
2021/06/05 00:52:49;;;;;;;4.28;3.88;;;14.10;99.90;;;;;;5028976;28;20399;-87
2021/06/05 00:55:18;;;;;;;4.57;3.95;;;14.10;99.90;;;;;;5075365;28;20410;-89
2021/06/05 00:57:44;;;;;;;3.90;3.50;;;14.00;99.90;;;;;;5043530;28;20406;-87
2021/06/05 01:00:26;;;;;;;4.22;3.63;;;14.00;99.90;;;;;;5034959;28;20499;-91
2021/06/05 01:02:52;;;;;;;4.47;3.92;;;14.00;99.90;;;;;;5061982;28;20395;-85
2021/06/05 01:05:19;;;;;;;3.95;3.55;;;13.90;99.90;;;;;;5043408;28;20772;-90
2021/06/05 01:07:45;;;;;;;4.25;3.85;;;13.90;99.90;;;;;;5044811;28;20391;-89
2021/06/05 01:10:20;;;;;;;4.68;4.20;;;13.90;99.90;;;;;;5057782;28;20547;-87
2021/06/05 01:12:52;;;;;;;3.70;3.40;;;13.90;99.90;;;;;;5043726;28;20439;-85
2021/06/05 01:15:28;;;;;;;4.03;3.33;;;13.80;99.90;;;;;;5041353;28;20553;-89
2021/06/05 01:18:15;;;;;;;4.03;3.72;;;13.80;99.90;;;;;;5076149;28;20402;-87
2021/06/05 01:20:59;;;;;;;4.15;3.83;;;13.90;99.90;;;;;;5054347;28;20415;-89
2021/06/05 01:23:44;;;;;;;3.90;3.60;;;13.80;99.90;;;;;;5034394;28;20401;-90
2021/06/05 01:26:21;;;;;;;4.05;3.75;;;13.70;99.90;;;;;;5042048;28;20418;-93
2021/06/05 01:28:49;;;;;;;4.20;3.83;;;13.70;99.90;;;;;;5060441;28;20478;-87
2021/06/05 01:31:18;;;;;;;3.53;3.22;;;13.70;99.90;;;;;;5055845;28;20425;-87
2021/06/05 01:33:46;;;;;;;3.85;3.53;;;13.70;99.90;;;;;;5062314;28;20411;-87
2021/06/05 01:36:16;;;;;;;4.25;3.85;;;13.80;99.90;;;;;;5076639;28;20419;-87
2021/06/05 01:38:44;;;;;;;4.32;3.92;;;13.70;99.90;;;;;;5024484;28;20393;-86
2021/06/05 01:41:12;;;;;;;4.10;3.80;;;13.70;99.90;;;;;;5041308;28;20730;-90
2021/06/05 01:43:38;;;;;;;4.57;4.17;;;13.70;99.90;;;;;;5043231;28;20396;-87
2021/06/05 01:46:04;;;;;;;4.80;4.40;;;13.70;99.90;;;;;;5028070;28;20402;-91
2021/06/05 01:48:31;;;;;;;4.50;4.10;;;13.60;99.90;;;;;;5028967;28;20421;-89
2021/06/05 01:51:00;;;;;;;4.63;4.22;;;13.60;99.90;;;;;;5042428;28;20395;-87
2021/06/05 01:53:28;;;;;;;5.22;4.72;;;13.60;99.90;;;;;;5040027;28;20396;-86
2021/06/05 01:56:05;;;;;;;4.82;4.43;;;13.60;99.90;;;;;;5036638;28;20473;-93
2021/06/05 01:58:35;;;;;;;4.88;4.47;;;13.60;99.90;;;;;;5031594;28;20475;-91
2021/06/05 02:01:08;;;;;;;4.95;4.40;;;13.60;99.90;;;;;;5026830;28;20426;-83
2021/06/05 02:03:39;;;;;;;4.72;4.32;;;13.60;99.90;;;;;;5062265;28;20383;-91
2021/06/05 02:06:20;;;;;;;4.72;4.32;;;13.60;99.90;;;;;;5048093;28;20397;-92
2021/06/05 02:08:46;;;;;;;4.45;4.00;;;13.60;99.90;;;;;;5070101;28;20439;-85
2021/06/05 02:11:14;;;;;;;5.15;4.53;;;13.50;99.90;;;;;;5058819;28;20419;-91
2021/06/05 02:13:45;;;;;;;5.55;4.70;;;13.50;99.90;;;;;;5057755;28;20437;-80
2021/06/05 02:16:37;;;;;;;6.13;4.60;;;13.50;99.90;;;;;;5042584;28;20482;-88
2021/06/05 02:19:09;;;;;;;5.90;4.47;;;13.50;99.90;;;;;;5032625;28;20425;-89
2021/06/05 02:21:44;;;;;;;4.75;4.35;;;13.50;99.90;;;;;;5077035;28;20415;-87
2021/06/05 02:24:33;;;;;;;5.35;4.85;;;13.50;99.90;;;;;;5049908;28;20399;-89
2021/06/05 02:26:59;;;;;;;4.80;4.40;;;13.50;99.90;;;;;;5035907;28;20466;-87
2021/06/05 02:29:33;;;;;;;5.15;4.65;;;13.50;99.90;;;;;;5019906;28;20395;-89
2021/06/05 02:32:04;;;;;;;5.15;4.65;;;13.40;99.90;;;;;;5035749;28;20416;-88
2021/06/05 02:34:32;;;;;;;5.63;5.10;;;13.40;99.90;;;;;;5079393;28;20935;-91
2021/06/05 02:36:59;;;;;;;5.03;4.55;;;13.40;99.90;;;;;;5038899;28;20442;-90
2021/06/05 02:39:25;;;;;;;5.07;4.57;;;13.50;99.90;;;;;;5064901;28;20417;-92
2021/06/05 02:41:58;;;;;;;4.57;4.13;;;13.50;99.90;;;;;;5051599;28;20403;-86
2021/06/05 02:44:27;;;;;;;5.13;4.72;;;13.50;99.90;;;;;;5049851;28;20367;-90
2021/06/05 02:46:56;;;;;;;5.50;4.33;;;13.50;99.90;;;;;;5066263;28;20387;-87
2021/06/05 02:49:26;;;;;;;4.50;4.10;;;13.40;99.90;;;;;;5065236;28;20486;-91
2021/06/05 02:51:59;;;;;;;4.70;4.30;;;13.40;99.90;;;;;;5082786;28;20643;-90
2021/06/05 02:54:28;;;;;;;4.72;4.25;;;13.40;99.90;;;;;;5051350;28;20398;-91
2021/06/05 02:56:55;;;;;;;4.60;4.20;;;13.40;99.90;;;;;;5066923;28;20399;-89
2021/06/05 02:59:22;;;;;;;5.72;4.82;;;13.40;99.90;;;;;;5034233;28;20415;-89
2021/06/05 03:01:53;;;;;;;4.40;4.00;;;13.40;99.90;;;;;;5081407;28;20399;-83
2021/06/05 03:04:20;;;;;;;4.53;4.13;;;13.40;99.90;;;;;;5066312;28;20407;-91
2021/06/05 03:06:46;;;;;;;4.93;4.40;;;13.40;99.90;;;;;;5050549;28;20383;-90
2021/06/05 03:09:15;;;;;;;4.05;3.75;;;13.40;99.90;;;;;;5017943;28;20395;-89
2021/06/05 03:11:48;;;;;;;4.22;3.92;;;13.50;99.90;;;;;;5065934;28;20411;-92
2021/06/05 03:14:15;;;;;;;4.35;3.95;;;13.40;99.90;;;;;;5033308;28;20407;-89
2021/06/05 03:16:41;;;;;;;4.88;4.47;;;13.40;99.90;;;;;;5081874;28;20534;-92
2021/06/05 03:19:09;;;;;;;4.95;4.35;;;13.40;99.90;;;;;;5049579;28;20446;-88
2021/06/05 03:21:37;;;;;;;4.63;4.23;;;13.40;99.90;;;;;;5048431;28;20446;-91
2021/06/05 03:24:14;;;;;;;4.22;3.92;;;13.40;99.90;;;;;;5043877;28;20411;-92
2021/06/05 03:26:40;;;;;;;4.67;4.27;;;13.40;99.90;;;;;;5033286;28;20394;-92
2021/06/05 03:29:09;;;;;;;4.43;4.03;;;13.40;99.90;;;;;;5033692;28;20419;-90
2021/06/05 03:31:38;;;;;;;4.53;4.13;;;13.50;99.90;;;;;;5061148;28;20403;-84
2021/06/05 03:34:03;;;;;;;4.13;3.83;;;13.50;99.90;;;;;;5030328;28;20410;-84
2021/06/05 03:36:30;;;;;;;4.60;4.20;;;13.50;99.90;;;;;;5063770;28;20445;-89
2021/06/05 03:38:57;;;;;;;4.50;4.13;;;13.50;99.90;;;;;;5048814;28;20414;-89
2021/06/05 03:41:30;;;;;;;4.70;4.30;;;13.50;99.90;;;;;;5042310;28;20440;-88
2021/06/05 03:43:57;;;;;;;4.55;4.15;;;13.60;99.90;;;;;;5019187;28;20395;-90
2021/06/05 03:46:24;;;;;;;4.68;4.28;;;13.60;99.90;;;;;;5028035;28;20408;-90
2021/06/05 03:48:52;;;;;;;4.13;3.72;;;13.70;99.90;;;;;;5049496;28;20391;-87
2021/06/05 03:51:18;;;;;;;4.27;3.87;;;13.80;99.90;;;;;;5077453;28;20465;-83
2021/06/05 03:53:44;;;;;;;4.40;4.00;;;13.80;99.90;;;;;;5045947;28;21074;-90
2021/06/05 03:56:10;;;;;;;4.03;3.72;;;13.90;99.90;;;;;;5076536;28;20405;-90
2021/06/05 03:58:40;;;;;;;4.80;4.30;;;14.00;99.90;;;;;;5059871;28;20414;-83
2021/06/05 04:01:07;;;;;;;4.13;3.80;;;14.10;99.90;;;;;;5039436;28;20418;-89
2021/06/05 04:03:33;;;;;;;4.60;4.22;;;14.10;99.90;;;;;;5026558;28;20405;-89
2021/06/05 04:05:59;;;;;;;4.55;4.15;;;14.20;99.90;;;;;;5028417;28;20482;-87
2021/06/05 04:08:24;;;;;;;4.30;3.80;;;14.30;99.90;;;;;;5078246;28;20395;-89
2021/06/05 04:10:50;;;;;;;4.43;4.03;;;14.30;99.90;;;;;;5041361;28;20439;-85
2021/06/05 04:13:16;;;;;;;4.20;3.87;;;14.30;99.90;;;;;;5025797;28;20410;-87
2021/06/05 04:15:41;;;;;;;4.57;3.80;;;14.30;99.90;;;;;;5012235;28;20434;-87
2021/06/05 04:18:09;;;;;;;4.30;4.00;;;14.50;99.90;;;;;;5043183;28;20983;-88
2021/06/05 04:20:35;;;;;;;5.45;4.38;;;14.50;99.90;;;;;;5041033;28;20415;-88
2021/06/05 04:23:01;;;;;;;4.30;4.00;;;14.60;99.90;;;;;;5059529;28;20391;-87
2021/06/05 04:25:27;;;;;;;4.85;4.38;;;14.70;99.90;;;;;;5055038;28;20462;-84
2021/06/05 04:27:53;;;;;;;6.50;4.73;;;14.70;99.90;;;;;;5058275;28;20401;-83
2021/06/05 04:30:22;;;;;;;4.57;4.20;;;14.80;99.90;;;;;;5037660;28;20418;-85
2021/06/05 04:32:47;;;;;;;4.43;4.03;;;14.90;99.90;;;;;;5025102;28;20399;-87
2021/06/05 04:35:13;;;;;;;4.88;4.32;;;15.00;99.90;;;;;;5039319;28;20419;-85
2021/06/05 04:37:39;;;;;;;4.50;4.10;;;15.20;99.90;;;;;;5040947;28;20907;-86
2021/06/05 04:40:05;;;;;;;4.53;3.95;;;15.20;99.90;;;;;;5036259;28;20421;-85
2021/06/05 04:42:31;;;;;;;4.70;4.20;;;15.30;99.90;;;;;;5041586;28;20387;-86
2021/06/05 04:44:57;;;;;;;4.53;4.18;;;15.50;99.90;;;;;;5056767;28;20422;-86
2021/06/05 04:47:22;;;;;;;5.17;4.70;;;15.50;99.90;;;;;;5026841;28;20430;-83
2021/06/05 04:49:48;;;;;;;4.97;4.53;;;15.60;99.90;;;;;;5044875;28;20770;-87
2021/06/05 04:52:14;;;;;;;5.47;4.77;;;15.60;99.90;;;;;;5058117;28;20572;-87
2021/06/05 04:54:39;;;;;;;5.40;4.90;;;15.70;99.90;;;;;;5028991;28;20395;-87
2021/06/05 04:57:05;;;;;;;5.43;4.40;;;15.80;99.90;;;;;;5046440;28;20453;-87
2021/06/05 04:59:31;;;;;;;4.90;4.30;;;15.90;99.90;;;;;;5027591;28;20407;-90
2021/06/05 05:01:57;;;;;;;4.38;3.97;;;16.00;99.90;;;;;;5064077;28;20469;-89
2021/06/05 05:04:22;;;;;;;4.73;4.33;;;16.10;99.90;;;;;;5050445;28;20465;-90
2021/06/05 05:06:48;;;;;;;4.40;4.00;;;16.30;99.90;;;;;;5066002;28;20411;-92
2021/06/05 05:09:14;;;;;;;5.53;4.50;;;16.30;99.90;;;;;;5034233;28;20398;-90
2021/06/05 05:11:40;;;;;;;5.00;4.60;;;16.40;99.90;;;;;;5031719;28;20423;-88
2021/06/05 05:14:05;;;;;;;4.38;3.97;;;16.50;99.90;;;;;;5017801;28;20399;-88
2021/06/05 05:16:31;;;;;;;4.17;3.77;;;16.60;99.90;;;;;;5016260;28;20415;-90
2021/06/05 05:18:58;;;;;;;4.20;3.80;;;16.70;99.90;;;;;;5064145;28;20646;-90
2021/06/05 05:21:24;;;;;;;5.05;4.40;;;16.90;99.90;;;;;;5029183;28;20453;-88
2021/06/05 05:23:50;;;;;;;4.28;3.88;;;17.00;99.90;;;;;;5020739;28;20401;-89
2021/06/05 05:26:15;;;;;;;4.13;3.73;;;17.20;99.90;;;;;;5062168;28;20464;-89
2021/06/05 05:28:41;;;;;;;4.28;3.88;;;17.20;99.90;;;;;;5050135;28;20414;-90
2021/06/05 05:31:10;;;;;;;3.90;3.57;;;17.30;99.90;;;;;;5060103;28;20447;-89
2021/06/05 05:33:38;;;;;;;3.65;3.35;;;17.50;99.90;;;;;;5034060;28;20411;-90
2021/06/05 05:36:05;;;;;;;3.95;3.55;;;17.70;99.90;;;;;;5049071;28;20447;-90
2021/06/05 05:38:31;;;;;;;3.63;3.33;;;17.90;99.90;;;;;;5067365;28;20416;-89
2021/06/05 05:40:56;;;;;;;4.00;3.10;;;18.00;99.90;;;;;;5063790;28;20422;-90
2021/06/05 05:43:22;;;;;;;3.58;3.28;;;18.20;99.90;;;;;;5048621;28;20399;-90
2021/06/05 05:45:48;;;;;;;3.63;3.20;;;18.40;99.90;;;;;;5030281;28;20424;-89
2021/06/05 05:48:14;;;;;;;3.83;3.50;;;18.60;99.90;;;;;;5017608;28;20395;-90
2021/06/05 05:50:40;;;;;;;3.50;3.20;;;18.70;99.90;;;;;;5064414;28;20415;-89
2021/06/05 05:53:06;;;;;;;3.30;3.00;;;18.80;99.90;;;;;;5061212;28;20418;-90
2021/06/05 05:55:31;;;;;;;3.67;3.07;;;19.00;99.90;;;;;;5048905;28;20399;-90
2021/06/05 05:58:08;;;;;;;3.38;3.08;;;19.20;99.90;;;;;;5064895;28;20462;-90
2021/06/05 06:00:34;;;;;;;3.70;3.13;;;19.40;99.90;;;;;;5061132;28;20445;-89
2021/06/05 06:03:00;;;;;;;3.20;2.90;;;19.50;99.90;;;;;;5031829;28;20391;-91
2021/06/05 06:05:26;;;;;;;3.30;3.00;;;19.70;99.90;;;;;;5035864;28;20413;-90
2021/06/05 06:07:51;;;;;;;3.30;3.00;;;19.90;99.90;;;;;;5068487;28;20422;-90
2021/06/05 06:10:17;;;;;;;3.33;3.03;;;20.10;99.90;;;;;;5056423;28;20653;-89
2021/06/05 06:12:43;;;;;;;3.40;2.93;;;20.30;99.90;;;;;;5033720;28;20407;-90
2021/06/05 06:15:13;;;;;;;4.32;3.22;;;20.40;99.90;;;;;;5069061;28;20398;-89
2021/06/05 06:17:39;;;;;;;3.53;3.22;;;20.50;99.90;;;;;;5053393;28;20407;-90
2021/06/05 06:20:06;;;;;;;4.97;3.50;;;20.70;99.90;;;;;;5015278;28;20424;-89
2021/06/05 06:22:32;;;;;;;3.40;3.10;;;20.80;99.90;;;;;;5069661;28;20391;-89
2021/06/05 06:24:58;;;;;;;3.17;2.80;;;20.90;99.90;;;;;;5052628;28;20558;-90
2021/06/05 06:27:24;;;;;;;2.60;2.40;;;21.00;99.90;;;;;;5085219;28;20437;-90
2021/06/05 06:29:49;;;;;;;2.97;2.60;;;21.30;99.90;;;;;;5065263;28;20387;-85
2021/06/05 06:32:15;;;;;;;3.03;2.83;;;21.40;99.90;;;;;;5047762;28;20406;-85
2021/06/05 06:34:41;;;;;;;2.95;2.72;;;21.50;99.90;;;;;;5049457;28;20475;-89
2021/06/05 06:37:08;;;;;;;2.92;2.65;;;21.70;99.90;;;;;;5051907;28;20385;-88
2021/06/05 06:39:36;;;;;;;3.25;2.97;;;21.90;99.90;;;;;;5049372;28;20423;-89
2021/06/05 06:42:04;;;;;;;2.80;2.60;;;22.00;99.90;;;;;;5050848;28;20410;-90
2021/06/05 06:44:31;;;;;;;4.90;3.25;;;21.90;99.90;;;;;;5031719;28;20407;-90
2021/06/05 06:47:08;;;;;;;3.73;3.43;;;22.10;99.90;;;;;;5030893;28;20432;-84
2021/06/05 06:49:37;;;;;;;2.72;2.53;;;22.30;99.90;;;;;;5046073;28;20415;-89
2021/06/05 06:52:04;;;;;;;3.75;2.95;;;22.40;99.90;;;;;;5059090;28;20431;-85
2021/06/05 06:54:33;;;;;;;3.08;2.78;;;22.70;99.90;;;;;;5067089;28;20383;-89
2021/06/05 06:57:06;;;;;;;3.20;2.90;;;22.90;99.90;;;;;;5019543;28;20401;-86
2021/06/05 06:59:35;;;;;;;2.70;2.50;;;22.80;99.90;;;;;;5066478;28;20418;-87
2021/06/05 07:02:29;;;;;;;3.07;2.87;;;22.90;99.90;;;;;;5043372;28;20474;-91
2021/06/05 07:05:00;;;;;;;2.58;2.38;;;23.10;99.90;;;;;;5033853;28;20418;-88
2021/06/05 07:07:31;;;;;;;3.00;2.80;;;23.20;99.90;;;;;;5033883;28;20387;-88
2021/06/05 07:10:06;;;;;;;3.10;2.78;;;23.40;99.90;;;;;;5074450;28;20402;-89
2021/06/05 07:12:42;;;;;;;2.60;2.40;;;23.40;99.90;;;;;;5036446;28;20387;-86
2021/06/05 07:15:20;;;;;;;3.00;2.80;;;23.40;99.90;;;;;;5048697;28;20387;-86
2021/06/05 07:18:01;;;;;;;2.95;2.75;;;23.80;99.90;;;;;;5062737;28;20391;-81
2021/06/05 07:21:10;;;;;;;3.20;2.90;;;23.70;99.90;;;;;;5039956;28;20464;-82
2021/06/05 07:24:29;;;;;;;2.75;2.55;;;24.10;99.90;;;;;;5055331;28;20557;-81
2021/06/05 07:28:17;;;;;;;3.20;2.90;;;24.50;99.90;;;;;;5029636;28;20394;-82
2021/06/05 07:31:54;;;;;;;2.88;2.67;;;25.00;99.90;;;;;;5062546;28;20399;-81
2021/06/05 08:21:12;;;;;;;3.40;2.40;;;27.20;99.90;;;;;;5574378;23;20425;-81
2021/06/05 08:34:09;;;;;;;2.55;2.33;;;28.00;99.90;;;;;;4937663;29;20766;-82
2021/06/05 08:36:38;;;;;;;2.40;2.20;;;27.90;99.90;;;;;;4883058;29;20483;-81
2021/06/05 08:55:45;;;;;;;2.10;2.00;;;28.80;99.90;;;;;;4933130;29;20382;-80
2021/06/05 08:58:31;;;;;;;2.30;2.10;;;29.00;99.10;;;;;;4945209;29;20404;-80
2021/06/05 09:04:59;;;;;;;2.40;2.20;;;29.00;96.20;;;;;;4941880;28;20442;-83
2021/06/05 09:07:24;;;;;;;3.03;2.33;;;29.00;95.90;;;;;;4892683;29;20407;-83
2021/06/05 09:09:50;;;;;;;2.00;1.90;;;29.20;96.60;;;;;;4902639;29;20413;-79
2021/06/05 09:24:10;;;;;;;3.42;2.15;;;29.50;94.10;;;;;;4951877;28;20418;-88
2021/06/05 09:26:36;;;;;;;2.00;1.90;;;30.10;93.90;;;;;;4929749;28;20380;-86
2021/06/05 09:29:16;;;;;;;2.45;2.20;;;30.30;92.20;;;;;;4935437;28;20418;-88
2021/06/05 09:32:08;;;;;;;2.10;2.00;;;30.50;91.10;;;;;;4915613;29;20399;-87
2021/06/05 09:34:36;;;;;;;2.22;2.03;;;30.20;90.50;;;;;;4903206;28;20397;-88
2021/06/05 09:37:02;;;;;;;2.55;2.17;;;30.60;91.90;;;;;;4901992;29;20450;-88
2021/06/05 09:39:40;;;;;;;2.60;2.40;;;30.80;90.10;;;;;;4903463;29;20509;-88
2021/06/05 09:42:05;;;;;;;2.80;2.17;;;30.80;85.20;;;;;;4934075;28;20415;-88
2021/06/05 09:44:46;;;;;;;3.33;2.43;;;30.90;86.60;;;;;;4905987;28;20410;-87
2021/06/05 09:47:23;;;;;;;2.20;2.10;;;30.90;87.60;;;;;;4915632;28;20404;-88
2021/06/05 09:49:53;;;;;;;2.28;2.10;;;30.70;83.10;;;;;;4925442;28;20451;-88
2021/06/05 09:52:24;;;;;;;2.33;2.17;;;31.00;84.70;;;;;;4900847;29;20659;-87
2021/06/05 09:54:52;;;;;;;2.15;1.95;;;31.20;83.00;;;;;;4928840;28;20412;-87
2021/06/05 09:57:18;;;;;;;2.80;2.10;;;31.30;81.20;;;;;;4933011;28;20422;-88
2021/06/05 09:59:43;;;;;;;2.00;1.80;;;31.40;79.40;;;;;;4933636;28;20455;-88
2021/06/05 10:02:16;;;;;;;2.20;2.00;;;31.40;81.60;;;;;;4916651;28;20796;-89
2021/06/05 10:04:42;;;;;;;2.30;2.10;;;31.70;76.90;;;;;;4915519;28;20416;-88
2021/06/05 10:07:24;;;;;;;1.83;1.73;;;31.60;75.30;;;;;;4917972;28;20393;-88
2021/06/05 10:09:50;;;;;;;2.17;2.08;;;31.60;73.70;;;;;;4901938;28;20393;-89
2021/06/05 10:12:19;;;;;;;2.10;1.90;;;31.90;72.80;;;;;;4931451;28;20403;-87
2021/06/05 10:14:58;;;;;;;2.30;2.10;;;32.30;74.00;;;;;;4915312;29;20419;-89
2021/06/05 10:17:40;;;;;;;3.60;3.30;;;32.30;72.20;;;;;;4898331;29;20415;-86
2021/06/05 10:20:24;;;;;;;2.28;2.08;;;32.40;69.10;;;;;;4931960;28;20456;-88
2021/06/05 10:22:56;;;;;;;2.22;2.13;;;32.50;67.60;;;;;;4934076;29;20438;-84
2021/06/05 10:25:34;;;;;;;7.75;2.30;;;32.40;66.00;;;;;;4901825;29;20694;-86
2021/06/05 10:28:22;;;;;;;2.08;1.92;;;32.40;68.10;;;;;;4903115;29;20391;-87
2021/06/05 10:30:52;;;;;;;2.20;2.00;;;32.40;67.20;;;;;;4913319;29;20410;-87
2021/06/05 10:33:41;;;;;;;2.30;2.10;;;32.50;65.80;;;;;;4919416;29;20435;-87
2021/06/05 10:36:18;;;;;;;2.17;2.07;;;32.70;66.50;;;;;;4912276;29;20450;-86
2021/06/05 10:38:52;;;;;;;2.42;2.22;;;33.10;64.50;;;;;;4915187;29;20400;-84
2021/06/05 10:41:25;;;;;;;2.63;2.00;;;33.20;64.20;;;;;;4910615;29;20757;-85
2021/06/05 10:43:50;;;;;;;2.03;1.92;;;33.20;62.70;;;;;;4934268;29;20427;-84
2021/06/05 10:46:23;;;;;;;2.50;2.30;;;33.00;61.50;;;;;;4930176;29;20408;-88
2021/06/05 10:48:51;;;;;;;2.08;1.98;;;33.10;61.60;;;;;;4917660;29;20404;-87
2021/06/05 10:51:24;;;;;;;2.22;2.08;;;33.40;60.30;;;;;;4904321;29;20507;-84
2021/06/05 10:54:06;;;;;;;2.22;2.03;;;33.50;64.00;;;;;;4914010;29;20419;-86
2021/06/05 10:56:42;;;;;;;2.25;2.15;;;33.80;62.30;;;;;;4891896;29;20733;-83
2021/06/05 10:59:45;;;;;;;1.98;1.80;;;34.00;59.70;;;;;;4911242;29;20422;-83
2021/06/05 11:02:41;;;;;;;2.53;2.33;;;33.90;58.10;;;;;;4918850;29;20431;-84
2021/06/05 11:05:16;;;;;;;2.33;2.13;;;34.20;58.20;;;;;;4896795;29;20507;-85
2021/06/05 11:07:41;;;;;;;2.38;2.17;;;34.20;59.50;;;;;;4921431;29;20407;-83
2021/06/05 11:10:08;;;;;;;1.90;1.80;;;34.50;59.70;;;;;;4904683;29;20421;-81
2021/06/05 11:12:33;;;;;;;2.30;2.10;;;35.10;60.40;;;;;;4907017;29;20414;-84
2021/06/05 11:14:59;;;;;;;2.40;2.20;;;35.60;58.70;;;;;;4937635;29;21078;-83
2021/06/05 11:17:30;;;;;;;2.33;2.17;;;35.70;53.40;;;;;;4891275;29;20487;-85
2021/06/05 11:20:05;;;;;;;2.60;2.40;;;35.80;56.40;;;;;;4890796;29;20430;-83
2021/06/05 11:22:50;;;;;;;2.20;2.10;;;36.00;57.00;;;;;;4914691;29;20514;-82
2021/06/05 11:25:15;;;;;;;2.72;2.53;;;35.80;55.80;;;;;;4904897;29;20892;-86
2021/06/05 11:27:41;;;;;;;2.70;2.50;;;36.10;55.80;;;;;;4917995;29;20414;-83
2021/06/05 11:30:35;;;;;;;2.07;1.97;;;35.70;52.60;;;;;;4903697;29;20451;-87
2021/06/05 11:33:09;;;;;;;2.10;2.00;;;36.00;56.40;;;;;;4917756;29;20563;-83
2021/06/05 11:35:48;;;;;;;2.30;2.20;;;36.60;55.00;;;;;;4904892;29;20400;-82
2021/06/05 11:38:17;;;;;;;2.00;1.90;;;37.00;53.80;;;;;;4906545;29;20415;-83
2021/06/05 11:41:11;;;;;;;2.20;2.10;;;37.20;53.50;;;;;;4936083;29;20480;-82
2021/06/05 11:43:42;;;;;;;2.10;1.98;;;37.20;51.40;;;;;;4913094;29;21100;-83
2021/06/05 11:46:11;;;;;;;2.50;2.30;;;37.40;52.20;;;;;;4903424;29;20427;-86
2021/06/05 11:48:49;;;;;;;2.35;2.15;;;37.80;53.90;;;;;;4904721;29;20462;-83
2021/06/05 11:51:22;;;;;;;2.23;2.13;;;37.00;50.20;;;;;;4926984;29;20483;-86
2021/06/05 11:53:55;;;;;;;2.50;2.23;;;36.50;50.80;;;;;;4916208;29;20455;-83
2021/06/05 11:56:45;;;;;;;2.20;2.00;;;36.00;53.80;;;;;;4901456;29;20413;-84
2021/06/05 11:59:32;;;;;;;2.15;2.05;;;35.80;52.80;;;;;;4898730;29;20405;-82
2021/06/05 12:02:05;;;;;;;2.28;2.08;;;35.40;52.60;;;;;;4868666;29;20528;-84
2021/06/05 12:04:35;;;;;;;4.00;2.05;;;35.20;52.70;;;;;;4885734;29;20446;-83
2021/06/05 12:07:14;;;;;;;2.10;2.00;;;35.40;53.50;;;;;;4898893;29;20817;-85
2021/06/05 12:09:42;;;;;;;2.20;2.10;;;35.90;53.80;;;;;;4897723;29;20414;-86
2021/06/05 12:12:09;;;;;;;2.20;2.10;;;36.40;52.90;;;;;;4913903;29;20688;-82
2021/06/05 12:17:24;;;;;;;1.90;1.80;;;36.60;51.70;;;;;;4886797;29;20416;-83
2021/06/05 12:19:50;;;;;;;2.28;2.08;;;36.60;49.70;;;;;;4915536;29;20426;-83
2021/06/05 12:22:20;;;;;;;2.90;2.22;;;37.00;48.70;;;;;;4900184;29;20428;-83
2021/06/05 12:24:50;;;;;;;2.17;2.08;;;36.70;50.90;;;;;;4899664;29;20405;-81
2021/06/05 12:27:37;;;;;;;2.50;2.30;;;36.40;50.10;;;;;;4883033;29;20404;-84
2021/06/05 12:30:10;;;;;;;2.15;2.03;;;36.40;50.60;;;;;;4891708;29;20582;-83
2021/06/05 12:32:36;;;;;;;2.30;2.20;;;36.10;49.50;;;;;;4911413;29;20408;-88
2021/06/05 12:35:28;;;;;;;2.17;1.98;;;35.50;50.10;;;;;;4882644;29;20460;-83
2021/06/05 12:37:55;;;;;;;2.67;2.17;;;35.20;50.90;;;;;;4026338;29;10002502;-81
2021/06/05 12:40:38;;;;;;;2.28;2.00;;;35.50;49.80;;;;;;4894661;29;20469;-84
2021/06/05 12:43:08;;;;;;;1.92;1.83;;;36.00;51.50;;;;;;4883468;29;20472;-82
2021/06/05 12:45:35;;;;;;;2.20;2.00;;;36.60;50.60;;;;;;4876975;29;20407;-86
2021/06/05 12:48:01;;;;;;;2.00;1.83;;;36.70;49.50;;;;;;4882472;29;20811;-84
2021/06/05 12:50:33;;;;;;;2.15;1.98;;;37.10;50.80;;;;;;4881298;29;20424;-88
2021/06/05 12:52:59;;;;;;;2.03;1.92;;;37.50;48.10;;;;;;4882517;29;20413;-84
2021/06/05 12:55:42;;;;;;;2.00;1.90;;;37.10;48.30;;;;;;4900161;29;20440;-86
2021/06/05 12:58:09;;;;;;;2.50;1.85;;;36.90;46.00;;;;;;4881141;29;20544;-87
2021/06/05 13:00:46;;;;;;;3.42;2.25;;;37.00;49.60;;;;;;4894061;29;20512;-84
2021/06/05 13:03:12;;;;;;;2.10;2.00;;;37.30;48.80;;;;;;4875907;29;20415;-83
2021/06/05 13:05:39;;;;;;;2.40;2.20;;;37.30;46.90;;;;;;4882960;29;20917;-84
2021/06/05 13:08:13;;;;;;;2.05;1.95;;;37.60;46.40;;;;;;4880502;29;20428;-83
2021/06/05 13:10:51;;;;;;;1.80;1.70;;;37.80;46.80;;;;;;4883429;29;20421;-85
2021/06/05 13:13:18;;;;;;;2.40;2.20;;;38.20;47.70;;;;;;4883115;29;20420;-86
2021/06/05 13:15:52;;;;;;;2.40;2.20;;;38.50;47.00;;;;;;4883050;29;20408;-84
2021/06/05 13:18:27;;;;;;;1.92;1.83;;;37.70;45.40;;;;;;4866018;29;20544;-87
2021/06/05 13:20:58;;;;;;;2.75;2.38;;;36.80;45.00;;;;;;4882158;29;20514;-85
2021/06/05 13:23:44;;;;;;;1.80;1.70;;;36.20;46.40;;;;;;4898611;29;20429;-85
2021/06/05 13:26:29;;;;;;;2.50;2.20;;;36.20;46.40;;;;;;4885053;29;20405;-86
2021/06/05 13:28:56;;;;;;;1.90;1.75;;;36.60;48.40;;;;;;4900076;29;20421;-84
2021/06/05 13:31:43;;;;;;;1.80;1.70;;;36.90;46.30;;;;;;4869204;29;20499;-82
2021/06/05 13:34:28;;;;;;;1.80;1.70;;;37.70;46.50;;;;;;4887699;29;20405;-83
2021/06/05 13:37:23;;;;;;;2.00;1.90;;;38.00;44.90;;;;;;4882237;29;20959;-83
2021/06/05 13:39:57;;;;;;;1.85;1.75;;;38.60;45.60;;;;;;4902672;29;20452;-87
2021/06/05 13:42:28;;;;;;;1.85;1.75;;;38.80;44.40;;;;;;4868252;29;20401;-83
2021/06/05 13:44:54;;;;;;;2.75;2.10;;;38.60;43.30;;;;;;4898842;29;20426;-83
2021/06/05 13:47:20;;;;;;;2.42;1.90;;;37.80;42.80;;;;;;4878829;29;20407;-84
2021/06/05 13:49:46;;;;;;;2.57;1.93;;;37.60;44.90;;;;;;4882816;29;20492;-87
2021/06/05 13:52:27;;;;;;;1.60;1.50;;;37.60;43.70;;;;;;4894425;29;20475;-85
2021/06/05 13:55:21;;;;;;;2.15;1.95;;;37.70;44.00;;;;;;4880754;29;20441;-84
2021/06/05 13:57:47;;;;;;;1.80;1.70;;;37.70;41.30;;;;;;4884679;29;20414;-83
2021/06/05 14:00:13;;;;;;;2.10;1.90;;;37.50;44.10;;;;;;4896236;29;20417;-84
2021/06/05 14:02:40;;;;;;;2.10;1.83;;;37.80;44.60;;;;;;4885627;29;20964;-85
2021/06/05 14:05:06;;;;;;;3.00;1.90;;;37.90;42.80;;;;;;4869707;29;20497;-86
2021/06/05 14:07:32;;;;;;;2.00;1.80;;;38.40;44.80;;;;;;4886681;29;20763;-83
2021/06/05 14:09:58;;;;;;;2.08;1.88;;;38.80;43.00;;;;;;4905714;29;20460;-86
2021/06/05 14:12:28;;;;;;;1.90;1.80;;;39.50;43.90;;;;;;4899384;29;20930;-81
2021/06/05 14:14:54;;;;;;;2.00;1.90;;;39.60;42.90;;;;;;4872789;29;20411;-85
2021/06/05 14:17:20;;;;;;;1.90;1.80;;;39.30;41.30;;;;;;4898287;29;20416;-85
2021/06/05 14:19:46;;;;;;;1.92;1.83;;;38.80;42.00;;;;;;4901532;29;21011;-84
2021/06/05 14:22:11;;;;;;;2.13;2.03;;;38.10;43.30;;;;;;4899493;29;20785;-84
2021/06/05 14:24:37;;;;;;;2.53;1.90;;;37.50;42.70;;;;;;4893152;29;20486;-86
2021/06/05 14:27:04;;;;;;;2.30;1.70;;;37.30;41.70;;;;;;4903559;29;20548;-86
2021/06/05 14:29:30;;;;;;;2.10;1.95;;;37.30;43.30;;;;;;4906132;29;20405;-84
2021/06/05 14:31:55;;;;;;;2.05;1.80;;;37.50;43.70;;;;;;4884342;29;20421;-89
2021/06/05 14:34:22;;;;;;;1.70;1.60;;;37.70;42.90;;;;;;4906475;29;20496;-85
2021/06/05 14:36:47;;;;;;;1.75;1.65;;;38.20;41.80;;;;;;4872720;29;20405;-86
2021/06/05 14:39:13;;;;;;;1.70;1.60;;;38.70;42.50;;;;;;4887813;29;20397;-83